Crew | Aerofun Virtual



 METAR AND TAF INFORMATION
METAR FOR GMMI
ADDS - METARS form results

(0807 UTC 22 July 2019)
Data provider http://aviationweather.gov/metar/data/
 
METAR text: GMMI 220800Z 02006KT 8000 NSC 22/20 Q1016 NOSIG
Conditions at: GMMI (ESSAOUIRA , MA) observed 0800 UTC 22 July 2019
Temperature: 22.0°C (72°F)
Dewpoint: 20.0°C (68°F) [RH = 88%]
Pressure (altimeter): 30.00 inches Hg (1016.0 mb)
Winds: from the NNE (20 degrees) at 7 MPH (6 knots; 3.1 m/s)
Visibility: 5 miles ( 8 km)
Ceiling: at least 12,000 feet AGL
Clouds: sky clear below 12,000 feet AGL
Weather: no significant weather observed at this time

Forecast for: GMMI (ESSAOUIRA , MA)
Text: TAF GMMI 220500Z 2206/2312 36010KT 8000 NSC
Forecast period: 0600 UTC 22 July 2019 to 1200 UTC 23 July 2019
Forecast type: FROM: standard forecast or significant change
Winds: from the N (360 degrees) at 12 MPH (10 knots; 5.1 m/s)
Visibility: 5 miles (8 km)
Ceiling: unknown
Clouds: missing
Weather: no significant weather forecast for this period

 AIRPORT MAP

 RUNWAY INFORMATION
Runway 16 Runway length 6890 ft Runway width 148 ft
Runway elevation 351 ft Runway displaced threshold 0 ft Runway heading 159
Runway 34 Runway length 6890 ft Runway width 148 ft
Runway elevation 421 ft Runway displaced threshold 0 ft Runway heading 339

 AIRPORT FREQUENCIES
Type TWR Name TWR Frequency 121.2 MHZ

 AIRPORT NEAR NAVIGATION AIDS
Type VOR-DME Name Essaouira Frequency 112700 KHZ